createdAt,value
2023-03-06T00:00:45.384Z,3.43
2023-03-06T00:03:12.511Z,3.39
2023-03-06T00:05:39.991Z,3.38
2023-03-06T00:08:07.019Z,3.37
2023-03-06T00:10:34.229Z,3.25
2023-03-06T00:13:05.688Z,3.13
2023-03-06T00:15:32.923Z,3.10
2023-03-06T00:18:03.924Z,3.04
2023-03-06T00:20:31.001Z,2.96
2023-03-06T00:22:58.812Z,2.98
2023-03-06T00:25:26.593Z,2.98
2023-03-06T00:27:53.524Z,2.97
2023-03-06T00:30:26.092Z,2.99
2023-03-06T00:32:53.924Z,2.86
2023-03-06T00:35:21.169Z,2.77
2023-03-06T00:37:48.162Z,2.81
2023-03-06T00:40:19.182Z,2.86
2023-03-06T00:42:47.267Z,2.78
2023-03-06T00:45:14.493Z,2.74
2023-03-06T00:47:41.980Z,2.67
2023-03-06T00:50:10.044Z,2.68
2023-03-06T00:52:37.261Z,2.63
2023-03-06T00:55:05.866Z,2.65
2023-03-06T00:57:32.694Z,2.64
2023-03-06T00:59:59.553Z,2.63
2023-03-06T01:02:26.478Z,2.61
2023-03-06T01:04:53.440Z,2.60
2023-03-06T01:07:20.349Z,2.59
2023-03-06T01:09:47.222Z,2.51
2023-03-06T01:12:14.291Z,2.48
2023-03-06T01:14:41.202Z,2.58
2023-03-06T01:17:08.090Z,2.55
2023-03-06T01:19:34.857Z,2.55
2023-03-06T01:22:01.608Z,2.56
2023-03-06T01:24:28.665Z,2.55
2023-03-06T01:26:56.096Z,2.59
2023-03-06T01:29:22.921Z,2.57
2023-03-06T01:31:53.532Z,2.57
2023-03-06T01:34:20.786Z,2.57
2023-03-06T01:36:48.292Z,2.51
2023-03-06T01:39:15.468Z,2.53
2023-03-06T01:41:42.186Z,2.48
2023-03-06T01:44:13.574Z,2.54
2023-03-06T01:46:43.484Z,2.51
2023-03-06T01:49:16.582Z,2.47
2023-03-06T01:51:52.096Z,2.55
2023-03-06T01:54:27.025Z,2.55
2023-03-06T01:57:03.536Z,2.58
2023-03-06T01:59:34.667Z,2.53
2023-03-06T02:02:03.816Z,2.46
2023-03-06T02:04:32.592Z,2.48
2023-03-06T02:07:04.818Z,2.58
2023-03-06T02:09:34.143Z,2.42
2023-03-06T02:12:10.600Z,2.32
2023-03-06T02:14:39.792Z,2.40
2023-03-06T02:17:10.860Z,2.43
2023-03-06T02:19:49.594Z,2.45
2023-03-06T02:22:16.414Z,2.45
2023-03-06T02:24:54.241Z,2.53
2023-03-06T02:27:24.361Z,2.50
2023-03-06T02:29:51.322Z,2.48
2023-03-06T02:32:18.330Z,2.53
2023-03-06T02:34:51.976Z,2.62
2023-03-06T02:37:20.043Z,2.61
2023-03-06T02:39:54.593Z,2.51
2023-03-06T02:42:28.617Z,2.47
2023-03-06T02:44:59.298Z,2.44
2023-03-06T02:47:26.331Z,2.41
2023-03-06T02:49:53.222Z,2.37
2023-03-06T02:52:20.051Z,2.43
2023-03-06T02:54:46.786Z,2.54
2023-03-06T02:57:13.559Z,2.59
2023-03-06T02:59:40.374Z,2.54
2023-03-06T03:02:07.299Z,2.54
2023-03-06T03:04:34.827Z,2.52
2023-03-06T03:07:01.724Z,2.49
2023-03-06T03:09:28.782Z,2.59
2023-03-06T03:11:55.718Z,2.48
2023-03-06T03:14:24.990Z,2.45
2023-03-06T03:16:52.152Z,2.43
2023-03-06T03:19:19.090Z,2.45
2023-03-06T03:21:46.123Z,2.42
2023-03-06T03:24:13.249Z,2.41
2023-03-06T03:26:40.132Z,2.49
2023-03-06T03:29:07.251Z,2.56
2023-03-06T03:31:37.469Z,2.53
2023-03-06T03:34:04.362Z,2.47
2023-03-06T03:36:31.277Z,2.47
2023-03-06T03:38:58.170Z,2.55
2023-03-06T03:41:25.057Z,2.59
2023-03-06T03:43:52.151Z,2.52
2023-03-06T03:46:19.023Z,2.45
2023-03-06T03:48:45.843Z,2.44
2023-03-06T03:51:16.480Z,2.39
2023-03-06T03:53:44.928Z,2.26
2023-03-06T03:56:13.220Z,2.27
2023-03-06T03:58:39.965Z,2.32
2023-03-06T04:01:07.743Z,2.33
2023-03-06T04:03:34.686Z,2.32
2023-03-06T04:06:01.555Z,2.38
2023-03-06T04:08:29.005Z,2.43
2023-03-06T04:10:56.117Z,2.44
2023-03-06T04:13:23.693Z,2.36
2023-03-06T04:15:54.294Z,2.28
2023-03-06T04:18:23.183Z,2.33
2023-03-06T04:20:51.017Z,2.33
2023-03-06T04:23:19.364Z,2.39
2023-03-06T04:25:46.731Z,2.33
2023-03-06T04:28:13.963Z,2.37
2023-03-06T04:30:41.529Z,2.39
2023-03-06T04:33:09.163Z,2.42
2023-03-06T04:35:36.177Z,2.34
2023-03-06T04:38:03.779Z,2.29
2023-03-06T04:40:34.392Z,2.32
2023-03-06T04:43:03.087Z,2.32
2023-03-06T04:45:31.749Z,2.33
2023-03-06T04:47:59.134Z,2.30
2023-03-06T04:50:28.249Z,2.29
2023-03-06T04:52:55.224Z,2.35
2023-03-06T04:55:22.120Z,2.33
2023-03-06T04:57:49.185Z,2.29
2023-03-06T05:00:20.754Z,2.24
2023-03-06T05:02:49.108Z,2.11
2023-03-06T05:05:18.245Z,2.10
2023-03-06T05:07:46.274Z,2.13
2023-03-06T05:10:17.989Z,2.07
2023-03-06T05:12:45.240Z,2.15
2023-03-06T05:15:13.494Z,2.19
2023-03-06T05:17:40.636Z,2.22
2023-03-06T05:20:09.898Z,2.27
2023-03-06T05:22:37.061Z,2.34
2023-03-06T05:25:04.898Z,2.34
2023-03-06T05:27:31.944Z,2.33
2023-03-06T05:29:59.275Z,2.32
2023-03-06T05:32:28.907Z,2.33
2023-03-06T05:34:56.487Z,2.32
2023-03-06T05:37:23.657Z,2.32
2023-03-06T05:39:51.704Z,2.31
2023-03-06T05:42:18.571Z,2.30
2023-03-06T05:44:45.908Z,2.30
2023-03-06T05:47:13.274Z,2.32
2023-03-06T05:49:40.556Z,2.28
2023-03-06T05:52:08.881Z,2.28
2023-03-06T05:54:37.501Z,2.30
2023-03-06T05:57:05.970Z,2.35
2023-03-06T05:59:33.705Z,2.41
2023-03-06T06:02:01.916Z,2.43
2023-03-06T06:04:28.867Z,2.44
2023-03-06T06:06:59.728Z,2.47
2023-03-06T06:09:27.897Z,2.44
2023-03-06T06:11:59.548Z,2.40
2023-03-06T06:14:27.076Z,2.39
2023-03-06T06:16:54.791Z,2.39
2023-03-06T06:19:23.011Z,2.40
2023-03-06T06:21:54.213Z,2.77
2023-03-06T06:24:25.225Z,2.71
2023-03-06T06:26:57.676Z,2.76
2023-03-06T06:29:26.564Z,2.81
2023-03-06T06:31:53.881Z,2.87
2023-03-06T06:34:21.652Z,2.90
2023-03-06T06:36:53.239Z,2.92
2023-03-06T06:39:23.363Z,2.96
2023-03-06T06:42:05.550Z,3.01
2023-03-06T06:44:37.976Z,3.02
2023-03-06T06:47:24.095Z,3.05
2023-03-06T06:49:54.077Z,3.11
2023-03-06T06:52:21.775Z,3.13
2023-03-06T06:54:48.585Z,3.18
2023-03-06T06:57:16.511Z,3.22
2023-03-06T06:59:43.367Z,3.31
2023-03-06T07:02:15.690Z,3.38
2023-03-06T07:05:00.392Z,3.41
2023-03-06T07:07:34.145Z,3.48
2023-03-06T07:10:01.252Z,3.52
2023-03-06T07:12:28.081Z,3.51
2023-03-06T07:14:55.264Z,3.54
2023-03-06T07:17:22.208Z,3.54
2023-03-06T07:19:49.489Z,3.55
2023-03-06T07:22:16.543Z,3.52
2023-03-06T07:24:43.324Z,3.54
2023-03-06T07:27:10.741Z,3.55
2023-03-06T07:29:38.079Z,3.59
2023-03-06T07:32:05.175Z,3.60
2023-03-06T07:34:32.127Z,3.58
2023-03-06T07:36:59.001Z,3.61
2023-03-06T07:39:27.919Z,3.63
2023-03-06T07:41:54.672Z,3.60
2023-03-06T07:44:22.064Z,3.60
2023-03-06T07:46:50.488Z,3.58
2023-03-06T07:49:18.077Z,3.57
2023-03-06T07:51:45.197Z,3.60
2023-03-06T07:54:12.103Z,3.59
2023-03-06T07:56:38.998Z,3.60
2023-03-06T07:59:05.830Z,3.58
2023-03-06T08:01:33.100Z,3.54
2023-03-06T08:04:01.802Z,3.50
2023-03-06T08:06:28.689Z,3.48
2023-03-06T08:08:56.895Z,3.46
2023-03-06T08:11:28.643Z,3.50
2023-03-06T08:13:56.829Z,3.46
2023-03-06T08:16:28.736Z,3.45
2023-03-06T08:18:57.102Z,3.43
2023-03-06T08:21:27.703Z,3.43
2023-03-06T08:23:54.987Z,3.44
2023-03-06T08:26:29.103Z,3.49
2023-03-06T08:28:59.184Z,3.49
2023-03-06T08:31:38.035Z,3.50
2023-03-06T08:34:15.037Z,3.51
2023-03-06T08:36:42.374Z,3.47
2023-03-06T08:39:10.040Z,3.49
2023-03-06T08:41:37.750Z,3.46
2023-03-06T08:44:05.436Z,3.43
2023-03-06T08:46:34.140Z,3.48
2023-03-06T08:49:01.859Z,3.51
2023-03-06T08:51:29.128Z,3.52
2023-03-06T08:53:58.264Z,3.51
2023-03-06T08:56:29.872Z,3.55
2023-03-06T08:59:00.310Z,3.55
2023-03-06T09:01:31.635Z,3.61
2023-03-06T09:04:04.338Z,3.68
2023-03-06T09:06:35.846Z,3.68
2023-03-06T09:09:03.964Z,3.72
2023-03-06T09:11:31.493Z,3.72
2023-03-06T09:13:59.406Z,3.74
2023-03-06T09:16:26.993Z,3.72
2023-03-06T09:18:54.343Z,3.74
2023-03-06T09:21:26.174Z,3.74
2023-03-06T09:23:53.059Z,3.79
2023-03-06T09:26:20.331Z,3.82
2023-03-06T09:28:47.418Z,3.85
2023-03-06T09:31:18.686Z,3.92
2023-03-06T09:33:46.676Z,3.89
2023-03-06T09:36:21.286Z,3.91
2023-03-06T09:38:49.770Z,3.89
2023-03-06T09:41:40.584Z,3.90
2023-03-06T09:44:22.696Z,3.98
2023-03-06T09:47:14.772Z,3.98
2023-03-06T09:50:19.371Z,4.07
2023-03-06T09:53:04.830Z,4.19
2023-03-06T09:55:38.000Z,4.22
2023-03-06T09:58:22.039Z,4.24
2023-03-06T10:01:02.930Z,4.18
2023-03-06T10:03:57.612Z,4.23
2023-03-06T10:06:34.727Z,4.18
2023-03-06T10:09:24.385Z,4.26
2023-03-06T10:12:04.930Z,4.27
2023-03-06T10:14:43.042Z,4.24
2023-03-06T10:17:20.647Z,4.37
2023-03-06T10:19:47.954Z,4.34
2023-03-06T10:22:44.777Z,4.37
2023-03-06T10:25:49.883Z,4.40
2023-03-06T10:28:23.142Z,4.39
2023-03-06T10:31:26.784Z,4.45
2023-03-06T10:33:55.524Z,4.53
2023-03-06T10:36:27.473Z,4.54
2023-03-06T10:38:59.742Z,4.54
2023-03-06T10:41:35.618Z,4.52
2023-03-06T10:44:20.768Z,4.57
2023-03-06T10:46:52.246Z,4.65
2023-03-06T10:49:37.796Z,4.73
2023-03-06T10:52:13.762Z,4.75
2023-03-06T10:54:44.602Z,4.82
2023-03-06T10:57:31.624Z,4.89
2023-03-06T11:00:08.565Z,4.99
2023-03-06T11:02:41.036Z,5.16
2023-03-06T11:05:20.635Z,5.36
2023-03-06T11:08:00.171Z,5.43
2023-03-06T11:10:31.214Z,5.48
2023-03-06T11:13:24.126Z,5.41
2023-03-06T11:16:30.650Z,5.54
2023-03-06T11:19:12.380Z,5.65
2023-03-06T11:21:40.718Z,5.67
2023-03-06T11:24:20.273Z,5.72
2023-03-06T11:26:59.292Z,5.70
2023-03-06T11:29:46.746Z,5.54
2023-03-06T11:32:31.735Z,5.53
2023-03-06T11:35:02.653Z,5.54
2023-03-06T11:37:32.599Z,5.50
2023-03-06T11:40:12.023Z,5.48
2023-03-06T11:43:35.591Z,5.46
2023-03-06T11:46:28.562Z,5.46
2023-03-06T11:49:12.646Z,5.53
2023-03-06T11:51:53.051Z,5.51
2023-03-06T11:54:20.805Z,5.59
2023-03-06T11:56:59.680Z,5.72
2023-03-06T11:59:58.465Z,5.87
2023-03-06T12:02:43.514Z,5.95
2023-03-06T12:05:36.515Z,5.93
2023-03-06T12:08:27.971Z,5.86
2023-03-06T12:10:59.437Z,6.01
2023-03-06T12:14:03.944Z,5.94
2023-03-06T12:17:01.968Z,5.95
2023-03-06T12:20:19.707Z,5.84
2023-03-06T12:23:21.702Z,5.81
2023-03-06T12:26:00.606Z,5.94
2023-03-06T12:28:58.732Z,6.11
2023-03-06T12:31:49.947Z,6.12
2023-03-06T12:34:19.567Z,6.10
2023-03-06T12:37:00.640Z,5.97
2023-03-06T12:39:33.889Z,5.84
2023-03-06T12:42:25.487Z,5.82
2023-03-06T12:45:10.186Z,5.96
2023-03-06T12:47:46.406Z,5.91
2023-03-06T12:50:32.628Z,5.84
2023-03-06T12:53:14.982Z,5.81
2023-03-06T12:55:47.410Z,5.81
2023-03-06T12:58:48.890Z,5.76
2023-03-06T13:01:45.961Z,5.75
2023-03-06T13:04:41.250Z,5.73
2023-03-06T13:07:31.481Z,5.80
2023-03-06T13:10:01.178Z,5.84
2023-03-06T13:13:01.055Z,5.89
2023-03-06T13:15:41.070Z,5.82
2023-03-06T13:18:33.867Z,5.89
2023-03-06T13:21:01.549Z,5.89
2023-03-06T13:23:47.858Z,5.86
2023-03-06T13:26:26.898Z,5.76
2023-03-06T13:28:57.846Z,5.79
2023-03-06T13:31:45.193Z,5.82
2023-03-06T13:34:42.110Z,5.76
2023-03-06T13:37:22.905Z,5.65
2023-03-06T13:39:55.570Z,5.67
2023-03-06T13:42:36.751Z,5.66
2023-03-06T13:45:34.378Z,5.57
2023-03-06T13:48:37.539Z,5.55
2023-03-06T13:50:49.689Z,5.57
2023-03-06T13:53:42.874Z,5.57
2023-03-06T13:56:47.465Z,5.54
2023-03-06T13:59:57.040Z,5.55
2023-03-06T14:02:55.561Z,5.57
2023-03-06T14:05:22.977Z,5.61
2023-03-06T14:08:12.826Z,5.68
2023-03-06T14:10:40.476Z,5.70
2023-03-06T14:13:23.630Z,5.70
2023-03-06T14:15:55.430Z,5.70
2023-03-06T14:18:39.712Z,5.63
2023-03-06T14:21:13.532Z,5.45
2023-03-06T14:23:45.834Z,5.46
2023-03-06T14:26:23.695Z,5.45
2023-03-06T14:28:59.387Z,5.44
2023-03-06T14:31:36.312Z,5.42
2023-03-06T14:34:21.577Z,5.36
2023-03-06T14:36:59.990Z,5.30
2023-03-06T14:39:43.512Z,5.25
2023-03-06T14:42:25.765Z,5.24
2023-03-06T14:45:23.943Z,5.13
2023-03-06T14:47:53.105Z,5.13
2023-03-06T14:50:33.929Z,5.11
2023-03-06T14:53:15.801Z,5.01
2023-03-06T14:56:06.291Z,5.05
2023-03-06T14:58:55.062Z,5.07
2023-03-06T15:01:27.738Z,5.04
2023-03-06T15:04:00.328Z,4.95
2023-03-06T15:06:39.001Z,4.88
2023-03-06T15:09:20.790Z,4.87
2023-03-06T15:11:57.647Z,4.85
2023-03-06T15:14:35.522Z,4.80
2023-03-06T15:17:17.535Z,4.87
2023-03-06T15:19:51.630Z,4.88
2023-03-06T15:22:41.100Z,4.94
2023-03-06T15:25:26.980Z,4.93
2023-03-06T15:28:27.900Z,4.93
2023-03-06T15:31:28.397Z,4.93
2023-03-06T15:34:04.123Z,4.92
2023-03-06T15:36:35.101Z,4.96
2023-03-06T15:39:24.708Z,5.00
2023-03-06T15:42:00.176Z,5.01
2023-03-06T15:44:30.240Z,5.04
2023-03-06T15:47:07.720Z,5.10
2023-03-06T15:49:38.526Z,5.09
2023-03-06T15:52:09.487Z,5.07
2023-03-06T15:54:37.896Z,4.99
2023-03-06T15:57:11.791Z,4.93
2023-03-06T15:59:44.344Z,4.94
2023-03-06T16:02:17.385Z,4.98
2023-03-06T16:04:45.298Z,4.97
2023-03-06T16:07:13.371Z,4.88
2023-03-06T16:09:42.263Z,4.86
2023-03-06T16:12:17.409Z,4.87
2023-03-06T16:14:47.322Z,4.86
2023-03-06T16:17:15.178Z,4.82
2023-03-06T16:19:43.332Z,4.86
2023-03-06T16:22:10.709Z,4.86
2023-03-06T16:24:37.881Z,4.80
2023-03-06T16:27:05.194Z,4.78
2023-03-06T16:29:32.177Z,4.81
2023-03-06T16:32:01.605Z,4.81
2023-03-06T16:34:28.481Z,4.80
2023-03-06T16:36:55.356Z,4.86
2023-03-06T16:39:24.037Z,4.88
2023-03-06T16:41:52.219Z,4.81
2023-03-06T16:44:20.874Z,4.80
2023-03-06T16:46:50.057Z,4.81
2023-03-06T16:49:23.341Z,4.85
2023-03-06T16:51:51.630Z,4.80
2023-03-06T16:54:18.986Z,4.72
2023-03-06T16:56:46.276Z,4.65
2023-03-06T16:59:13.317Z,4.53
2023-03-06T17:01:44.959Z,4.50
2023-03-06T17:04:12.179Z,4.46
2023-03-06T17:06:39.834Z,4.48
2023-03-06T17:09:06.939Z,4.46
2023-03-06T17:11:38.364Z,4.42
2023-03-06T17:14:06.985Z,4.46
2023-03-06T17:16:34.139Z,4.47
2023-03-06T17:19:02.299Z,4.51
2023-03-06T17:21:30.216Z,4.50
2023-03-06T17:23:57.595Z,4.51
2023-03-06T17:26:24.529Z,4.47
2023-03-06T17:28:51.541Z,4.50
2023-03-06T17:31:27.076Z,4.50
2023-03-06T17:33:59.102Z,4.49
2023-03-06T17:36:35.330Z,4.49
2023-03-06T17:39:04.008Z,4.46
2023-03-06T17:41:33.074Z,4.45
2023-03-06T17:44:01.557Z,4.46
2023-03-06T17:46:28.604Z,4.46
2023-03-06T17:48:55.496Z,4.45
2023-03-06T17:51:23.625Z,4.45
2023-03-06T17:53:52.320Z,4.44
2023-03-06T17:56:19.968Z,4.48
2023-03-06T17:58:50.881Z,4.50
2023-03-06T18:01:24.008Z,4.46
2023-03-06T18:03:55.293Z,4.47
2023-03-06T18:06:27.800Z,4.44
2023-03-06T18:08:57.089Z,4.42
2023-03-06T18:11:27.824Z,4.44
2023-03-06T18:13:54.801Z,4.36
2023-03-06T18:16:25.820Z,4.33
2023-03-06T18:18:55.266Z,4.32
2023-03-06T18:21:24.519Z,4.35
2023-03-06T18:23:52.006Z,4.29
2023-03-06T18:26:29.478Z,4.28
2023-03-06T18:29:04.335Z,4.27
2023-03-06T18:31:36.145Z,4.26
2023-03-06T18:34:13.237Z,4.20
2023-03-06T18:36:43.660Z,4.14
2023-03-06T18:39:13.983Z,4.14
2023-03-06T18:41:42.640Z,4.14
2023-03-06T18:44:19.158Z,4.19
2023-03-06T18:46:46.391Z,4.26
2023-03-06T18:49:19.092Z,4.23
2023-03-06T18:51:48.465Z,4.20
2023-03-06T18:54:25.278Z,4.18
2023-03-06T18:56:52.511Z,4.24
2023-03-06T18:59:20.257Z,4.22
2023-03-06T19:01:57.306Z,4.19
2023-03-06T19:04:36.584Z,4.17
2023-03-06T19:07:05.122Z,4.17
2023-03-06T19:09:32.482Z,4.19
2023-03-06T19:12:03.176Z,4.19
2023-03-06T19:14:30.599Z,4.15
2023-03-06T19:17:00.736Z,4.12
2023-03-06T19:19:29.347Z,4.15
2023-03-06T19:22:00.595Z,4.13
2023-03-06T19:24:30.740Z,4.16
2023-03-06T19:26:57.862Z,4.14
2023-03-06T19:29:25.737Z,4.18
2023-03-06T19:31:53.202Z,4.24
2023-03-06T19:34:23.279Z,4.16
2023-03-06T19:36:54.897Z,4.17
2023-03-06T19:39:22.601Z,4.13
2023-03-06T19:41:50.015Z,4.09
2023-03-06T19:44:17.730Z,4.10
2023-03-06T19:46:55.605Z,4.11
2023-03-06T19:49:23.015Z,4.10
2023-03-06T19:51:50.290Z,4.07
2023-03-06T19:54:18.044Z,4.09
2023-03-06T19:56:45.397Z,4.11
2023-03-06T19:59:13.568Z,4.13
2023-03-06T20:01:40.920Z,4.05
2023-03-06T20:04:07.997Z,4.01
2023-03-06T20:06:36.647Z,4.06
2023-03-06T20:09:08.579Z,4.06
2023-03-06T20:11:35.963Z,4.04
2023-03-06T20:14:06.911Z,4.08
2023-03-06T20:16:34.990Z,4.03
2023-03-06T20:19:03.068Z,4.04
2023-03-06T20:21:37.700Z,4.02
2023-03-06T20:24:08.972Z,4.01
2023-03-06T20:26:38.023Z,4.02
2023-03-06T20:29:08.204Z,4.01
2023-03-06T20:31:36.492Z,3.98
2023-03-06T20:34:04.594Z,3.99
2023-03-06T20:36:40.449Z,4.01
2023-03-06T20:39:16.827Z,4.04
2023-03-06T20:41:46.933Z,4.02
2023-03-06T20:44:17.944Z,4.03
2023-03-06T20:46:45.386Z,4.09
2023-03-06T20:49:13.393Z,4.08
2023-03-06T20:51:42.237Z,4.06
2023-03-06T20:54:14.647Z,4.03
2023-03-06T20:56:47.346Z,3.99
2023-03-06T20:59:14.906Z,3.98
2023-03-06T21:01:50.844Z,3.99
2023-03-06T21:04:18.424Z,4.01
2023-03-06T21:06:47.101Z,4.02
2023-03-06T21:09:18.125Z,4.03
2023-03-06T21:11:48.604Z,4.07
2023-03-06T21:14:16.037Z,4.06
2023-03-06T21:16:43.598Z,4.04
2023-03-06T21:19:12.212Z,4.06
2023-03-06T21:21:39.128Z,4.04
2023-03-06T21:24:06.335Z,4.07
2023-03-06T21:26:34.151Z,4.05
2023-03-06T21:29:02.455Z,4.02
2023-03-06T21:31:31.302Z,4.05
2023-03-06T21:33:59.030Z,4.05
2023-03-06T21:36:27.142Z,4.05
2023-03-06T21:38:55.105Z,4.01
2023-03-06T21:41:30.491Z,3.95
2023-03-06T21:44:01.726Z,3.97
2023-03-06T21:46:33.545Z,3.99
2023-03-06T21:49:04.236Z,3.93
2023-03-06T21:51:31.734Z,3.95
2023-03-06T21:53:59.180Z,3.95
2023-03-06T21:56:28.551Z,3.95
2023-03-06T21:58:58.453Z,3.98
2023-03-06T22:01:28.826Z,3.96
2023-03-06T22:03:58.444Z,3.95
2023-03-06T22:06:29.776Z,3.92
2023-03-06T22:08:59.797Z,3.92
2023-03-06T22:11:31.469Z,3.97
2023-03-06T22:13:58.563Z,4.02
2023-03-06T22:16:25.459Z,4.04
2023-03-06T22:18:52.581Z,4.04
2023-03-06T22:21:22.418Z,4.05
2023-03-06T22:23:57.815Z,4.04
2023-03-06T22:26:28.033Z,4.04
2023-03-06T22:28:55.094Z,4.03
2023-03-06T22:31:26.287Z,4.03
2023-03-06T22:33:56.178Z,4.02
2023-03-06T22:36:24.138Z,4.03
2023-03-06T22:38:57.445Z,4.03
2023-03-06T22:41:26.838Z,3.99
2023-03-06T22:43:59.725Z,3.95
2023-03-06T22:46:27.860Z,4.00
2023-03-06T22:48:57.462Z,4.00
2023-03-06T22:51:25.606Z,3.93
2023-03-06T22:53:54.005Z,3.87
2023-03-06T22:56:22.728Z,3.86
2023-03-06T22:58:49.824Z,3.87
2023-03-06T23:01:21.424Z,3.90
2023-03-06T23:03:55.255Z,3.89
2023-03-06T23:06:29.397Z,3.84
2023-03-06T23:09:07.765Z,3.85
2023-03-06T23:11:35.124Z,3.83
2023-03-06T23:14:02.467Z,3.81
2023-03-06T23:16:29.698Z,3.79
2023-03-06T23:18:56.540Z,3.79
2023-03-06T23:21:24.883Z,3.80
2023-03-06T23:23:53.897Z,3.80
2023-03-06T23:26:27.581Z,3.76
2023-03-06T23:28:55.298Z,3.74
2023-03-06T23:31:29.434Z,3.75
2023-03-06T23:34:02.285Z,3.72
2023-03-06T23:36:30.184Z,3.74
2023-03-06T23:38:57.550Z,3.69
2023-03-06T23:41:24.974Z,3.68
2023-03-06T23:43:54.953Z,3.69
2023-03-06T23:46:22.501Z,3.71
2023-03-06T23:48:49.412Z,3.73
2023-03-06T23:51:22.278Z,3.80
2023-03-06T23:53:58.858Z,3.83
2023-03-06T23:56:28.452Z,3.82
2023-03-06T23:58:55.507Z,3.83
